Wednesday, August 23, 2017, 11:05 PM MDT
Back to Local

KSLC, Salt Lake City International Airport

Location: Salt Lake City, UT, United States Lat: 40.783
Local Time: 11:05 PM MDT ( 5:05 GMT) Lon: -111.967
Time Zone: US/Mountain Elev: 4225 ft

Show me the last for .
Show Decoded

2017-08-23 22:03 METAR KSLC 240403Z 31014KT 10SM CLR 25/12 A3003 RMK AO2 WSHFT 0348 T02500117 =
2017-08-23 21:54 METAR KSLC 240354Z 32012G17KT 10SM CLR 26/11 A3003 RMK AO2 SLP110 T02610106 =
2017-08-23 20:54 METAR KSLC 240254Z 00000KT 10SM FEW110 FEW150 28/08 A3000 RMK AO2 SLP101 CB DSNT
                 ALQDS ACSL DSNT SW-W T02830078 55007 =
2017-08-23 19:54 METAR KSLC 240154Z 35006KT 10SM FEW110 FEW150 FEW240 30/07 A3000 RMK AO2 SLP099
                 CB DSNT ALQDS TCU DSNT S T03000072 =
2017-08-23 18:54 METAR KSLC 240054Z VRB03KT 10SM FEW080 FEW120 FEW150 SCT240 32/07 A3001 RMK AO2
                 SLP101 CB DSNT ALQDS TCU DSNT SE AND S-W-N ACSL DSNT SW-W T03170072 =
2017-08-23 17:54 METAR KSLC 232354Z 10006KT 10SM FEW080 FEW110 FEW150 BKN240 31/08 A3002 RMK AO2
                 SLP109 VIRGA DSNT SE CB DSNT ALQDS TCU DSNT E AND S-SW AND NW-N T03110078 10317
                 20289 56021 =
2017-08-23 16:54 METAR KSLC 232254Z 14009KT 10SM FEW080 FEW120 SCT150 BKN240 31/09 A3005 RMK AO2
                 SLP115 VIRGA E-S CB DSNT ALQDS TCU DSNT NW-NE AND E-SW T03060089 =
2017-08-23 15:54 METAR KSLC 232154Z 07003KT 10SM FEW080CB FEW120 SCT150 BKN240 29/08 A3007 RMK
                 AO2 SLP122 VIRGA DSNT E-S CBMAM E-SE MOV NE CB DSNT ALQDS ACSL DSNT N AND SW
                 T02940078 =
2017-08-23 14:54 METAR KSLC 232054Z 29003KT 10SM FEW085CB FEW120 SCT150 BKN250 29/07 A3010 RMK
                 AO2 LTG DSNT S SLP133 VIRGA DSNT S AND NW CBMAM E-SE MOV NE CB DSNT ALQDS
                 T02940067 57017 =
2017-08-23 13:54 METAR KSLC 231954Z 30010G17KT 270V330 10SM FEW085 FEW120 SCT160 SCT250 31/08
                 A3012 RMK AO2 LTG DSNT NE AND S SLP138 VIRGA SE AND DSNT SW-W CB DSNT ALQDS
                 T03060078 =
2017-08-23 12:54 METAR KSLC 231854Z 32007G14KT 270V340 10SM FEW080TCU FEW120 SCT160 SCT250 31/09
                 A3013 RMK AO2 SLP143 VIRGA DSNT S AND NW CB DSNT ALQDS TCU S-SW ACSL DSNT N-NE
                 T03060094 =
2017-08-23 11:54 METAR KSLC 231754Z VRB04KT 10SM FEW080 FEW120 SCT170 SCT250 29/10 A3015 RMK AO2
                 SLP151 VIRGA DSNT W CB DSNT NE-SE AND SW TCU DSNT NW ACSL DSNT NW-NE T02890100
                 10289 20206 58004 =
2017-08-23 10:54 METAR KSLC 231654Z 16007KT 10SM FEW080 FEW120 SCT170 SCT250 27/11 A3016 RMK AO2
                 SLP157 CB DSNT SW TCU DSNT SE AND NW ACSL DSNT SE AND SW T02670111 =
2017-08-23 09:54 METAR KSLC 231554Z 15005KT 10SM FEW080 FEW120 BKN170 BKN250 24/11 A3017 RMK AO2
                 SLP160 VIRGA DSNT SE CB DSNT N-NE AND SW AND NW T02440111 =
2017-08-23 08:54 METAR KSLC 231454Z 15008KT 10SM FEW090 BKN170 BKN240 23/13 A3017 RMK AO2 SLP160
                 VIRGA DSNT SE AND SW AND NW CB DSNT NW-NE TCU DSNT SE T02330133 51006 =
2017-08-23 07:54 METAR KSLC 231354Z 15007KT 10SM FEW080 BKN170 BKN230 22/13 A3017 RMK AO2 SLP163
                 VIRGA DSNT SW AND W-NW CB DSNT NW TCU DSNT NE T02170133 =
2017-08-23 06:54 METAR KSLC 231254Z 13007KT 10SM FEW100 BKN130 21/13 A3016 RMK AO2 SLP159
                 T02110128 =
2017-08-23 05:54 METAR KSLC 231154Z 17008KT 10SM SCT120 21/12 A3014 RMK AO2 SLP150 60000
                 T02110122 10244 20206 53002 =
2017-08-23 04:54 METAR KSLC 231054Z 16007KT 10SM SCT120 22/12 A3013 RMK AO2 SLP144 T02220122 =
2017-08-23 03:54 METAR KSLC 230954Z 15008KT 10SM BKN120 23/11 A3014 RMK AO2 SLP145 T02330111 =
2017-08-23 02:54 METAR KSLC 230854Z 12007KT 10SM FEW100 BKN130 23/11 A3014 RMK AO2 SLP146 60000
                 T02280111 56006 =
2017-08-23 01:54 METAR KSLC 230754Z 10007KT 10SM FEW070 SCT095 BKN150 24/11 A3014 RMK AO2 RAE04
                 SLP145 P0000 T02390106 =
2017-08-23 00:54 METAR KSLC 230654Z 14007KT 10SM -RA FEW055 SCT080 BKN100 BKN150 24/13 A3015 RMK
                 AO2 RAB53 SLP148 CB DSNT S P0000 T02390133 403280217 =
2017-08-22 23:54 METAR KSLC 230554Z 13004KT 10SM BKN130 BKN150 24/12 A3016 RMK AO2 SLP154 60000
                 T02390122 10306 20239 50005 =

Support USWX by starting your Amazon purchase here.